sensor_id;sensor_type;location;lat;lon;timestamp;pressure;altitude;pressure_sealevel;temperature;humidity
76416;BME280;65248;55.686;37.678;2022-11-20T00:01:43;99847.25;;;-3.42;86.81
76416;BME280;65248;55.686;37.678;2022-11-20T00:04:10;99818.91;;;-3.49;86.78
76416;BME280;65248;55.686;37.678;2022-11-20T00:06:37;99818.44;;;-3.54;86.46
76416;BME280;65248;55.686;37.678;2022-11-20T00:09:02;99878.19;;;-3.25;86.30
76416;BME280;65248;55.686;37.678;2022-11-20T00:11:29;99837.94;;;-3.47;86.23
76416;BME280;65248;55.686;37.678;2022-11-20T00:13:57;99878.19;;;-3.25;86.38
76416;BME280;65248;55.686;37.678;2022-11-20T00:16:24;99916.75;;;-3.05;86.08
76416;BME280;65248;55.686;37.678;2022-11-20T00:18:50;99767.03;;;-3.88;85.63
76416;BME280;65248;55.686;37.678;2022-11-20T00:21:21;99881.16;;;-3.30;85.90
76416;BME280;65248;55.686;37.678;2022-11-20T00:23:47;99868.22;;;-3.42;85.64
76416;BME280;65248;55.686;37.678;2022-11-20T00:26:14;99828.94;;;-3.65;85.17
76416;BME280;65248;55.686;37.678;2022-11-20T00:28:42;99764.09;;;-4.06;85.66
76416;BME280;65248;55.686;37.678;2022-11-20T00:31:10;99883.22;;;-3.45;85.58
76416;BME280;65248;55.686;37.678;2022-11-20T00:33:36;99817.75;;;-4.00;85.20
76416;BME280;65248;55.686;37.678;2022-11-20T00:36:04;99754.88;;;-4.45;85.37
76416;BME280;65248;55.686;37.678;2022-11-20T00:38:31;99915.50;;;-3.22;84.89
76416;BME280;65248;55.686;37.678;2022-11-20T00:40:58;99917.13;;;-3.21;84.88
76416;BME280;65248;55.686;37.678;2022-11-20T00:43:24;99862.50;;;-3.48;84.33
76416;BME280;65248;55.686;37.678;2022-11-20T00:45:50;99920.09;;;-3.03;84.82
76416;BME280;65248;55.686;37.678;2022-11-20T00:48:16;99743.03;;;-4.04;83.91
76416;BME280;65248;55.686;37.678;2022-11-20T00:50:41;99919.63;;;-3.08;84.10
76416;BME280;65248;55.686;37.678;2022-11-20T00:53:07;99883.22;;;-3.33;83.98
76416;BME280;65248;55.686;37.678;2022-11-20T00:55:32;99841.56;;;-3.59;83.50
76416;BME280;65248;55.686;37.678;2022-11-20T00:57:58;99766.91;;;-4.09;83.79
76416;BME280;65248;55.686;37.678;2022-11-20T01:00:23;99895.69;;;-3.15;83.41
76416;BME280;65248;55.686;37.678;2022-11-20T01:02:49;99769.53;;;-3.98;83.00
76416;BME280;65248;55.686;37.678;2022-11-20T01:05:14;99918.13;;;-3.22;83.05
76416;BME280;65248;55.686;37.678;2022-11-20T01:07:40;99828.81;;;-3.74;83.11
76416;BME280;65248;55.686;37.678;2022-11-20T01:10:06;99815.84;;;-3.87;83.42
76416;BME280;65248;55.686;37.678;2022-11-20T01:12:31;99872.16;;;-3.70;83.45
76416;BME280;65248;55.686;37.678;2022-11-20T01:14:57;99862.28;;;-3.89;83.78
76416;BME280;65248;55.686;37.678;2022-11-20T01:17:22;99905.25;;;-3.47;83.66
76416;BME280;65248;55.686;37.678;2022-11-20T01:19:50;99843.44;;;-3.72;83.50
76416;BME280;65248;55.686;37.678;2022-11-20T01:22:16;99721.34;;;-4.62;83.12
76416;BME280;65248;55.686;37.678;2022-11-20T01:24:42;99717.06;;;-4.63;83.09
76416;BME280;65248;55.686;37.678;2022-11-20T01:27:07;99896.78;;;-3.51;83.57
76416;BME280;65248;55.686;37.678;2022-11-20T01:29:32;99780.84;;;-4.19;83.11
76416;BME280;65248;55.686;37.678;2022-11-20T01:31:58;99898.44;;;-3.83;83.10
76416;BME280;65248;55.686;37.678;2022-11-20T01:34:24;99851.31;;;-3.72;83.18
76416;BME280;65248;55.686;37.678;2022-11-20T01:36:51;99887.63;;;-3.45;82.73
76416;BME280;65248;55.686;37.678;2022-11-20T01:39:22;99790.84;;;-4.13;82.90
76416;BME280;65248;55.686;37.678;2022-11-20T01:41:48;99932.88;;;-3.21;83.22
76416;BME280;65248;55.686;37.678;2022-11-20T01:44:55;99925.84;;;-3.09;82.93
76416;BME280;65248;55.686;37.678;2022-11-20T01:50:16;99861.19;;;-3.53;82.81
76416;BME280;65248;55.686;37.678;2022-11-20T01:52:43;99934.41;;;-3.07;82.90
76416;BME280;65248;55.686;37.678;2022-11-20T01:55:25;99778.94;;;-4.17;82.58
76416;BME280;65248;55.686;37.678;2022-11-20T01:57:52;99947.06;;;-3.01;82.78
76416;BME280;65248;55.686;37.678;2022-11-20T02:00:19;99955.75;;;-3.01;82.25
76416;BME280;65248;55.686;37.678;2022-11-20T02:02:53;99959.91;;;-2.98;81.98
76416;BME280;65248;55.686;37.678;2022-11-20T02:05:37;99962.16;;;-3.16;82.23
76416;BME280;65248;55.686;37.678;2022-11-20T02:08:05;99816.31;;;-4.15;82.28
76416;BME280;65248;55.686;37.678;2022-11-20T02:10:31;99960.41;;;-3.37;83.20
76416;BME280;65248;55.686;37.678;2022-11-20T02:12:57;99775.31;;;-4.61;83.22
76416;BME280;65248;55.686;37.678;2022-11-20T02:15:42;99938.81;;;-3.52;83.80
76416;BME280;65248;55.686;37.678;2022-11-20T02:18:09;99970.66;;;-3.23;83.94
76416;BME280;65248;55.686;37.678;2022-11-20T02:20:35;99809.63;;;-4.19;83.61
76416;BME280;65248;55.686;37.678;2022-11-20T02:23:14;99913.25;;;-3.49;83.70
76416;BME280;65248;55.686;37.678;2022-11-20T02:25:43;99867.72;;;-3.92;83.56
76416;BME280;65248;55.686;37.678;2022-11-20T02:28:11;99817.97;;;-4.25;83.29
76416;BME280;65248;55.686;37.678;2022-11-20T02:30:36;99894.88;;;-3.71;82.87
76416;BME280;65248;55.686;37.678;2022-11-20T02:33:02;99939.19;;;-3.34;83.09
76416;BME280;65248;55.686;37.678;2022-11-20T02:37:54;99976.38;;;-3.29;83.32
76416;BME280;65248;55.686;37.678;2022-11-20T02:40:24;99899.59;;;-3.98;83.37
76416;BME280;65248;55.686;37.678;2022-11-20T02:42:54;99946.56;;;-3.51;83.31
76416;BME280;65248;55.686;37.678;2022-11-20T02:45:20;99875.53;;;-4.14;83.09
76416;BME280;65248;55.686;37.678;2022-11-20T02:47:46;99824.56;;;-4.44;82.91
76416;BME280;65248;55.686;37.678;2022-11-20T02:50:11;99913.47;;;-3.74;82.87
76416;BME280;65248;55.686;37.678;2022-11-20T02:52:37;99945.88;;;-3.53;83.38
76416;BME280;65248;55.686;37.678;2022-11-20T02:55:02;99895.34;;;-3.88;82.80
76416;BME280;65248;55.686;37.678;2022-11-20T02:57:28;99930.84;;;-3.62;82.85
76416;BME280;65248;55.686;37.678;2022-11-20T02:59:54;99989.47;;;-3.40;82.15
76416;BME280;65248;55.686;37.678;2022-11-20T03:02:19;99995.66;;;-3.53;83.09
76416;BME280;65248;55.686;37.678;2022-11-20T03:04:45;99966.78;;;-3.75;83.20
76416;BME280;65248;55.686;37.678;2022-11-20T03:07:13;99765.47;;;-5.03;83.38
76416;BME280;65248;55.686;37.678;2022-11-20T03:09:39;99863.59;;;-4.30;83.09
76416;BME280;65248;55.686;37.678;2022-11-20T03:12:05;99994.22;;;-3.34;83.04
76416;BME280;65248;55.686;37.678;2022-11-20T03:14:30;99991.72;;;-3.25;82.89
76416;BME280;65248;55.686;37.678;2022-11-20T03:16:56;99938.22;;;-3.56;82.61
76416;BME280;65248;55.686;37.678;2022-11-20T03:19:22;100014.00;;;-3.19;82.55
76416;BME280;65248;55.686;37.678;2022-11-20T03:21:47;99985.50;;;-3.46;81.94
76416;BME280;65248;55.686;37.678;2022-11-20T03:24:16;99803.13;;;-4.60;81.79
76416;BME280;65248;55.686;37.678;2022-11-20T03:26:44;99911.69;;;-4.19;82.44
76416;BME280;65248;55.686;37.678;2022-11-20T03:29:10;99895.81;;;-4.40;83.09
76416;BME280;65248;55.686;37.678;2022-11-20T03:31:38;100009.22;;;-3.59;82.93
76416;BME280;65248;55.686;37.678;2022-11-20T03:34:06;100021.38;;;-3.47;83.14
76416;BME280;65248;55.686;37.678;2022-11-20T03:36:37;100009.22;;;-3.36;83.27
76416;BME280;65248;55.686;37.678;2022-11-20T03:39:02;99941.09;;;-3.70;82.99
76416;BME280;65248;55.686;37.678;2022-11-20T03:41:30;100008.28;;;-3.24;82.75
76416;BME280;65248;55.686;37.678;2022-11-20T03:44:00;99892.72;;;-3.99;82.29
76416;BME280;65248;55.686;37.678;2022-11-20T03:46:27;99973.72;;;-3.63;82.12
76416;BME280;65248;55.686;37.678;2022-11-20T03:48:53;99892.66;;;-4.21;82.11
76416;BME280;65248;55.686;37.678;2022-11-20T03:51:21;99974.91;;;-3.56;82.23
76416;BME280;65248;55.686;37.678;2022-11-20T03:53:48;99939.59;;;-3.96;82.18
76416;BME280;65248;55.686;37.678;2022-11-20T03:56:16;99881.53;;;-4.47;82.77
76416;BME280;65248;55.686;37.678;2022-11-20T03:58:42;99979.28;;;-3.78;83.38
76416;BME280;65248;55.686;37.678;2022-11-20T04:01:18;99980.47;;;-3.71;82.89
76416;BME280;65248;55.686;37.678;2022-11-20T04:03:44;99932.13;;;-4.36;82.80
76416;BME280;65248;55.686;37.678;2022-11-20T04:06:33;100009.81;;;-3.55;82.63
76416;BME280;65248;55.686;37.678;2022-11-20T04:08:59;99991.81;;;-3.60;82.99
76416;BME280;65248;55.686;37.678;2022-11-20T04:11:27;99805.94;;;-4.74;82.21
76416;BME280;65248;55.686;37.678;2022-11-20T04:13:54;100041.13;;;-3.54;82.66
76416;BME280;65248;55.686;37.678;2022-11-20T04:16:21;99864.75;;;-4.45;82.20
76416;BME280;65248;55.686;37.678;2022-11-20T04:18:50;99988.94;;;-3.57;82.51
76416;BME280;65248;55.686;37.678;2022-11-20T04:21:16;99953.69;;;-3.75;82.65
76416;BME280;65248;55.686;37.678;2022-11-20T04:23:41;100015.09;;;-3.33;82.27
76416;BME280;65248;55.686;37.678;2022-11-20T04:26:09;99991.56;;;-3.57;81.97
76416;BME280;65248;55.686;37.678;2022-11-20T04:28:35;99989.56;;;-3.53;82.09
76416;BME280;65248;55.686;37.678;2022-11-20T04:31:06;99984.47;;;-3.44;81.72
76416;BME280;65248;55.686;37.678;2022-11-20T04:33:32;100011.38;;;-3.30;81.73
76416;BME280;65248;55.686;37.678;2022-11-20T04:36:05;99945.25;;;-3.67;81.53
76416;BME280;65248;55.686;37.678;2022-11-20T04:38:31;99990.88;;;-3.59;81.35
76416;BME280;65248;55.686;37.678;2022-11-20T04:40:59;100076.22;;;-3.32;81.60
76416;BME280;65248;55.686;37.678;2022-11-20T04:43:25;100013.81;;;-3.73;82.10
76416;BME280;65248;55.686;37.678;2022-11-20T04:45:54;100031.34;;;-3.52;81.96
76416;BME280;65248;55.686;37.678;2022-11-20T04:48:20;99970.88;;;-4.06;81.01
76416;BME280;65248;55.686;37.678;2022-11-20T04:50:46;100085.38;;;-3.27;81.82
76416;BME280;65248;55.686;37.678;2022-11-20T04:53:12;99830.53;;;-4.77;80.86
76416;BME280;65248;55.686;37.678;2022-11-20T04:55:37;99927.38;;;-4.19;81.27
76416;BME280;65248;55.686;37.678;2022-11-20T04:58:03;99949.78;;;-4.15;81.16
76416;BME280;65248;55.686;37.678;2022-11-20T05:00:28;100100.84;;;-3.35;80.31
76416;BME280;65248;55.686;37.678;2022-11-20T05:02:54;99995.56;;;-4.21;81.68
76416;BME280;65248;55.686;37.678;2022-11-20T05:05:19;99956.47;;;-4.35;81.06
76416;BME280;65248;55.686;37.678;2022-11-20T05:07:45;100032.78;;;-3.94;80.81
76416;BME280;65248;55.686;37.678;2022-11-20T05:10:10;100099.78;;;-3.67;81.10
76416;BME280;65248;55.686;37.678;2022-11-20T05:12:36;100066.16;;;-3.84;81.22
76416;BME280;65248;55.686;37.678;2022-11-20T05:15:01;100057.69;;;-3.88;81.28
76416;BME280;65248;55.686;37.678;2022-11-20T05:17:27;99923.94;;;-4.55;81.96
76416;BME280;65248;55.686;37.678;2022-11-20T05:19:52;99992.16;;;-4.10;81.96
76416;BME280;65248;55.686;37.678;2022-11-20T05:22:18;100133.72;;;-3.31;81.56
76416;BME280;65248;55.686;37.678;2022-11-20T05:24:43;100119.78;;;-3.31;81.05
76416;BME280;65248;55.686;37.678;2022-11-20T05:27:09;100041.50;;;-3.82;80.87
76416;BME280;65248;55.686;37.678;2022-11-20T05:29:34;100147.38;;;-3.50;81.20
76416;BME280;65248;55.686;37.678;2022-11-20T05:32:00;100027.72;;;-4.08;80.96
76416;BME280;65248;55.686;37.678;2022-11-20T05:34:25;99976.91;;;-4.64;81.75
76416;BME280;65248;55.686;37.678;2022-11-20T05:36:51;100047.28;;;-4.01;81.98
76416;BME280;65248;55.686;37.678;2022-11-20T05:39:16;100054.34;;;-3.90;81.28
76416;BME280;65248;55.686;37.678;2022-11-20T05:41:42;99935.81;;;-4.62;80.97
76416;BME280;65248;55.686;37.678;2022-11-20T05:44:10;100047.38;;;-4.02;80.77
76416;BME280;65248;55.686;37.678;2022-11-20T05:46:36;100079.09;;;-3.94;81.46
76416;BME280;65248;55.686;37.678;2022-11-20T05:49:01;99980.59;;;-4.66;81.69
76416;BME280;65248;55.686;37.678;2022-11-20T05:51:27;100140.31;;;-3.60;81.64
76416;BME280;65248;55.686;37.678;2022-11-20T05:53:53;100144.31;;;-3.91;81.18
76416;BME280;65248;55.686;37.678;2022-11-20T05:56:20;99951.13;;;-4.81;81.69
76416;BME280;65248;55.686;37.678;2022-11-20T05:58:47;99958.28;;;-4.83;80.80
76416;BME280;65248;55.686;37.678;2022-11-20T06:01:21;100030.38;;;-4.32;81.49
76416;BME280;65248;55.686;37.678;2022-11-20T06:03:47;100035.09;;;-4.37;81.18
76416;BME280;65248;55.686;37.678;2022-11-20T06:06:16;100052.47;;;-4.36;79.92
76416;BME280;65248;55.686;37.678;2022-11-20T06:08:41;100165.50;;;-3.70;80.83
76416;BME280;65248;55.686;37.678;2022-11-20T06:11:09;100178.50;;;-3.69;80.76
76416;BME280;65248;55.686;37.678;2022-11-20T06:13:35;100109.44;;;-4.15;80.71
76416;BME280;65248;55.686;37.678;2022-11-20T06:16:01;99857.53;;;-5.60;80.61
76416;BME280;65248;55.686;37.678;2022-11-20T06:18:29;99969.22;;;-5.15;80.55
76416;BME280;65248;55.686;37.678;2022-11-20T06:21:10;100155.19;;;-3.61;80.29
76416;BME280;65248;55.686;37.678;2022-11-20T06:23:36;100155.19;;;-3.61;79.68
76416;BME280;65248;55.686;37.678;2022-11-20T06:26:10;100128.72;;;-3.93;79.29
76416;BME280;65248;55.686;37.678;2022-11-20T06:28:36;100094.44;;;-4.13;79.63
76416;BME280;65248;55.686;37.678;2022-11-20T06:31:02;100104.91;;;-4.13;79.82
76416;BME280;65248;55.686;37.678;2022-11-20T06:33:28;100028.13;;;-4.49;79.61
76416;BME280;65248;55.686;37.678;2022-11-20T06:35:57;100114.63;;;-3.79;79.61
76416;BME280;65248;55.686;37.678;2022-11-20T06:38:22;100032.59;;;-4.38;79.00
76416;BME280;65248;55.686;37.678;2022-11-20T06:40:48;99999.28;;;-4.60;78.87
76416;BME280;65248;55.686;37.678;2022-11-20T06:43:13;99999.16;;;-4.46;78.95
76416;BME280;65248;55.686;37.678;2022-11-20T06:45:40;100196.38;;;-3.04;78.98
76416;BME280;65248;55.686;37.678;2022-11-20T06:48:09;100093.91;;;-3.82;78.36
76416;BME280;65248;55.686;37.678;2022-11-20T06:50:36;100190.59;;;-3.20;78.46
76416;BME280;65248;55.686;37.678;2022-11-20T06:53:02;100167.88;;;-3.09;78.03
76416;BME280;65248;55.686;37.678;2022-11-20T06:55:29;100202.09;;;-2.99;77.74
76416;BME280;65248;55.686;37.678;2022-11-20T06:57:54;100167.88;;;-3.09;77.99
76416;BME280;65248;55.686;37.678;2022-11-20T07:00:20;99954.88;;;-4.49;77.13
76416;BME280;65248;55.686;37.678;2022-11-20T07:02:45;100156.28;;;-3.28;77.64
76416;BME280;65248;55.686;37.678;2022-11-20T07:05:11;100211.19;;;-2.92;78.04
76416;BME280;65248;55.686;37.678;2022-11-20T07:07:36;100150.53;;;-3.33;77.47
76416;BME280;65248;55.686;37.678;2022-11-20T07:10:02;100215.84;;;-2.95;78.29
76416;BME280;65248;55.686;37.678;2022-11-20T07:12:27;99872.59;;;-5.03;77.11
76416;BME280;65248;55.686;37.678;2022-11-20T07:14:53;100167.97;;;-3.10;77.20
76416;BME280;65248;55.686;37.678;2022-11-20T07:17:18;100048.81;;;-3.98;77.41
76416;BME280;65248;55.686;37.678;2022-11-20T07:19:44;100166.97;;;-3.31;77.41
76416;BME280;65248;55.686;37.678;2022-11-20T07:22:09;100152.50;;;-3.48;77.62
76416;BME280;65248;55.686;37.678;2022-11-20T07:24:35;100099.28;;;-3.72;78.08
76416;BME280;65248;55.686;37.678;2022-11-20T07:27:00;100117.66;;;-3.61;77.79
76416;BME280;65248;55.686;37.678;2022-11-20T07:29:26;100162.41;;;-3.40;77.31
76416;BME280;65248;55.686;37.678;2022-11-20T07:31:51;100149.25;;;-3.52;77.31
76416;BME280;65248;55.686;37.678;2022-11-20T07:34:17;100205.44;;;-3.08;78.03
76416;BME280;65248;55.686;37.678;2022-11-20T07:36:42;100141.25;;;-3.37;77.84
76416;BME280;65248;55.686;37.678;2022-11-20T07:39:08;100209.53;;;-2.93;77.20
76416;BME280;65248;55.686;37.678;2022-11-20T07:41:33;100146.75;;;-3.18;77.17
76416;BME280;65248;55.686;37.678;2022-11-20T07:43:59;100152.97;;;-3.08;76.00
76416;BME280;65248;55.686;37.678;2022-11-20T07:46:24;100214.69;;;-2.80;76.41
76416;BME280;65248;55.686;37.678;2022-11-20T07:48:50;100194.03;;;-2.96;76.65
76416;BME280;65248;55.686;37.678;2022-11-20T07:51:15;100033.09;;;-4.09;76.29
76416;BME280;65248;55.686;37.678;2022-11-20T07:53:41;100116.97;;;-3.17;76.23
76416;BME280;65248;55.686;37.678;2022-11-20T07:56:06;100172.38;;;-2.76;76.25
76416;BME280;65248;55.686;37.678;2022-11-20T07:58:32;100181.78;;;-2.62;75.96
76416;BME280;65248;55.686;37.678;2022-11-20T08:01:06;100136.69;;;-3.01;75.71
76416;BME280;65248;55.686;37.678;2022-11-20T08:03:32;100228.94;;;-2.49;75.50
76416;BME280;65248;55.686;37.678;2022-11-20T08:05:59;100233.22;;;-2.60;75.52
76416;BME280;65248;55.686;37.678;2022-11-20T08:08:28;100060.78;;;-3.83;75.90
76416;BME280;65248;55.686;37.678;2022-11-20T08:10:54;100182.56;;;-2.95;76.32
76416;BME280;65248;55.686;37.678;2022-11-20T08:13:39;100173.41;;;-3.01;76.70
76416;BME280;65248;55.686;37.678;2022-11-20T08:16:23;100246.81;;;-2.54;75.70
76416;BME280;65248;55.686;37.678;2022-11-20T08:18:48;100235.69;;;-2.80;75.77
76416;BME280;65248;55.686;37.678;2022-11-20T08:21:14;100161.78;;;-3.09;75.39
76416;BME280;65248;55.686;37.678;2022-11-20T08:23:40;100244.03;;;-2.64;75.90
76416;BME280;65248;55.686;37.678;2022-11-20T08:26:05;100135.38;;;-3.06;76.18
76416;BME280;65248;55.686;37.678;2022-11-20T08:28:31;100215.09;;;-2.40;75.54
76416;BME280;65248;55.686;37.678;2022-11-20T08:31:00;100161.13;;;-2.89;75.04
76416;BME280;65248;55.686;37.678;2022-11-20T08:33:26;100182.59;;;-2.84;75.02
76416;BME280;65248;55.686;37.678;2022-11-20T08:35:52;100158.69;;;-3.14;76.46
76416;BME280;65248;55.686;37.678;2022-11-20T08:38:17;100266.88;;;-2.42;76.00
76416;BME280;65248;55.686;37.678;2022-11-20T08:40:43;100257.13;;;-2.29;75.88
76416;BME280;65248;55.686;37.678;2022-11-20T08:43:31;100147.97;;;-3.11;75.95
76416;BME280;65248;55.686;37.678;2022-11-20T08:45:57;100109.78;;;-3.37;75.56
76416;BME280;65248;55.686;37.678;2022-11-20T08:48:22;100148.94;;;-2.90;75.70
76416;BME280;65248;55.686;37.678;2022-11-20T08:50:48;100089.56;;;-3.13;75.40
76416;BME280;65248;55.686;37.678;2022-11-20T08:53:13;100134.91;;;-2.78;75.14
76416;BME280;65248;55.686;37.678;2022-11-20T08:55:39;100262.59;;;-2.21;75.80
76416;BME280;65248;55.686;37.678;2022-11-20T08:58:05;100145.47;;;-3.13;75.41
76416;BME280;65248;55.686;37.678;2022-11-20T09:00:32;100291.22;;;-2.40;76.03
76416;BME280;65248;55.686;37.678;2022-11-20T09:02:57;100205.94;;;-2.92;75.83
76416;BME280;65248;55.686;37.678;2022-11-20T09:05:24;100196.06;;;-2.88;76.24
76416;BME280;65248;55.686;37.678;2022-11-20T09:07:49;100218.50;;;-2.73;76.31
76416;BME280;65248;55.686;37.678;2022-11-20T09:10:15;100087.75;;;-3.94;76.83
76416;BME280;65248;55.686;37.678;2022-11-20T09:12:41;100055.91;;;-3.88;76.40
76416;BME280;65248;55.686;37.678;2022-11-20T09:15:06;100219.16;;;-2.93;76.53
76416;BME280;65248;55.686;37.678;2022-11-20T09:17:32;100287.34;;;-2.59;76.93
76416;BME280;65248;55.686;37.678;2022-11-20T09:19:57;100168.19;;;-3.24;76.83
76416;BME280;65248;55.686;37.678;2022-11-20T09:22:23;100241.13;;;-2.83;76.77
76416;BME280;65248;55.686;37.678;2022-11-20T09:24:49;100316.75;;;-2.42;77.16
76416;BME280;65248;55.686;37.678;2022-11-20T09:27:14;100316.41;;;-2.73;77.32
76416;BME280;65248;55.686;37.678;2022-11-20T09:29:44;100288.28;;;-2.71;77.65
76416;BME280;65248;55.686;37.678;2022-11-20T09:32:09;100342.19;;;-2.32;77.50
76416;BME280;65248;55.686;37.678;2022-11-20T09:34:35;100339.16;;;-2.38;77.70
76416;BME280;65248;55.686;37.678;2022-11-20T09:37:01;100077.44;;;-3.95;77.41
76416;BME280;65248;55.686;37.678;2022-11-20T09:39:26;100226.16;;;-3.05;77.42
76416;BME280;65248;55.686;37.678;2022-11-20T09:55:25;100217.81;;;-3.10;77.96
76416;BME280;65248;55.686;37.678;2022-11-20T09:57:51;100318.31;;;-2.40;78.12
76416;BME280;65248;55.686;37.678;2022-11-20T10:00:17;100344.25;;;-2.02;77.23
76416;BME280;65248;55.686;37.678;2022-11-20T10:02:58;100336.72;;;-2.64;78.55
76416;BME280;65248;55.686;37.678;2022-11-20T10:05:40;100266.09;;;-2.67;78.48
76416;BME280;65248;55.686;37.678;2022-11-20T10:08:21;100340.19;;;-2.06;77.98
76416;BME280;65248;55.686;37.678;2022-11-20T10:30:10;100344.00;;;-2.21;81.46
76416;BME280;65248;55.686;37.678;2022-11-20T10:32:42;100348.31;;;-2.09;81.22
76416;BME280;65248;55.686;37.678;2022-11-20T10:37:50;100366.19;;;-2.25;81.29
76416;BME280;65248;55.686;37.678;2022-11-20T10:42:59;100258.09;;;-2.76;81.16
76416;BME280;65248;55.686;37.678;2022-11-20T10:48:09;100329.66;;;-2.39;81.42
76416;BME280;65248;55.686;37.678;2022-11-20T10:50:39;100261.91;;;-2.80;80.62
76416;BME280;65248;55.686;37.678;2022-11-20T10:53:11;100373.88;;;-2.00;80.72
76416;BME280;65248;55.686;37.678;2022-11-20T10:55:57;100386.56;;;-1.94;80.78
76416;BME280;65248;55.686;37.678;2022-11-20T10:58:36;100253.25;;;-2.70;80.54
76416;BME280;65248;55.686;37.678;2022-11-20T11:01:05;100167.34;;;-3.25;79.62
76416;BME280;65248;55.686;37.678;2022-11-20T11:03:33;100122.84;;;-3.72;79.20
76416;BME280;65248;55.686;37.678;2022-11-20T11:08:46;100324.66;;;-2.20;79.47
76416;BME280;65248;55.686;37.678;2022-11-20T11:11:24;100170.94;;;-3.15;78.82
76416;BME280;65248;55.686;37.678;2022-11-20T11:13:51;100288.31;;;-2.48;78.84
76416;BME280;65248;55.686;37.678;2022-11-20T11:16:23;100318.16;;;-2.38;78.45
76416;BME280;65248;55.686;37.678;2022-11-20T11:18:49;100413.56;;;-1.92;78.67
76416;BME280;65248;55.686;37.678;2022-11-20T11:21:21;100388.44;;;-1.96;78.84
76416;BME280;65248;55.686;37.678;2022-11-20T11:24:02;100398.72;;;-2.04;78.96
76416;BME280;65248;55.686;37.678;2022-11-20T11:26:28;100343.41;;;-2.25;78.94
76416;BME280;65248;55.686;37.678;2022-11-20T11:28:58;100289.75;;;-2.55;78.16
76416;BME280;65248;55.686;37.678;2022-11-20T11:31:32;100283.78;;;-2.58;78.51
76416;BME280;65248;55.686;37.678;2022-11-20T11:34:27;100389.41;;;-1.97;78.29
76416;BME280;65248;55.686;37.678;2022-11-20T11:36:57;100177.88;;;-3.14;77.88
76416;BME280;65248;55.686;37.678;2022-11-20T11:39:25;99913.63;;;-5.17;78.15
76416;BME280;65248;55.686;37.678;2022-11-20T11:41:52;100095.00;;;-3.97;77.33
76416;BME280;65248;55.686;37.678;2022-11-20T11:47:10;100417.97;;;-2.27;78.46
76416;BME280;65248;55.686;37.678;2022-11-20T11:49:37;100362.53;;;-2.46;78.37
76416;BME280;65248;55.686;37.678;2022-11-20T11:57:28;100308.53;;;-2.73;77.77
76416;BME280;65248;55.686;37.678;2022-11-20T12:00:16;100403.72;;;-2.01;77.54
76416;BME280;65248;55.686;37.678;2022-11-20T12:05:30;100248.13;;;-2.95;76.32
76416;BME280;65248;55.686;37.678;2022-11-20T12:08:09;100409.34;;;-1.94;76.53
76416;BME280;65248;55.686;37.678;2022-11-20T12:15:50;100434.31;;;-1.89;75.38
76416;BME280;65248;55.686;37.678;2022-11-20T12:18:18;100082.84;;;-4.09;74.29
76416;BME280;65248;55.686;37.678;2022-11-20T12:21:16;100072.91;;;-4.17;75.18
76416;BME280;65248;55.686;37.678;2022-11-20T12:40:55;100397.16;;;-1.95;74.03
76416;BME280;65248;55.686;37.678;2022-11-20T12:43:31;100290.91;;;-2.71;74.41
76416;BME280;65248;55.686;37.678;2022-11-20T12:49:26;100413.78;;;-1.95;73.80
76416;BME280;65248;55.686;37.678;2022-11-20T12:52:02;100409.34;;;-1.94;73.60
76416;BME280;65248;55.686;37.678;2022-11-20T12:54:41;100063.81;;;-4.24;73.24
76416;BME280;65248;55.686;37.678;2022-11-20T12:57:16;100419.28;;;-1.98;72.93
76416;BME280;65248;55.686;37.678;2022-11-20T13:00:14;100378.63;;;-2.16;73.40
76416;BME280;65248;55.686;37.678;2022-11-20T13:05:55;100425.94;;;-2.05;73.28
76416;BME280;65248;55.686;37.678;2022-11-20T13:08:53;100425.72;;;-1.91;72.51
76416;BME280;65248;55.686;37.678;2022-11-20T13:15:11;100256.13;;;-2.96;72.66
76416;BME280;65248;55.686;37.678;2022-11-20T13:19:53;100382.69;;;-2.23;72.41
76416;BME280;65248;55.686;37.678;2022-11-20T13:22:42;100052.81;;;-4.16;72.16
76416;BME280;65248;55.686;37.678;2022-11-20T13:25:29;100426.91;;;-1.95;73.28
76416;BME280;65248;55.686;37.678;2022-11-20T13:27:57;100343.56;;;-2.50;73.33
76416;BME280;65248;55.686;37.678;2022-11-20T13:30:27;100270.88;;;-3.07;72.77
76416;BME280;65248;55.686;37.678;2022-11-20T13:33:06;100451.00;;;-2.01;73.34
76416;BME280;65248;55.686;37.678;2022-11-20T13:35:34;100399.56;;;-2.38;72.73
76416;BME280;65248;55.686;37.678;2022-11-20T13:38:11;100303.88;;;-2.80;73.00
76416;BME280;65248;55.686;37.678;2022-11-20T13:40:50;100457.03;;;-1.88;72.92
76416;BME280;65248;55.686;37.678;2022-11-20T13:46:06;100325.47;;;-2.77;72.36
76416;BME280;65248;55.686;37.678;2022-11-20T13:48:41;100079.19;;;-4.19;72.48
76416;BME280;65248;55.686;37.678;2022-11-20T13:54:18;100431.06;;;-2.03;71.21
76416;BME280;65248;55.686;37.678;2022-11-20T13:57:35;100418.81;;;-2.27;70.80
76416;BME280;65248;55.686;37.678;2022-11-20T14:00:09;100459.50;;;-1.97;70.89
76416;BME280;65248;55.686;37.678;2022-11-20T14:02:36;100446.97;;;-1.94;71.50
76416;BME280;65248;55.686;37.678;2022-11-20T14:05:03;100456.94;;;-2.10;71.85
76416;BME280;65248;55.686;37.678;2022-11-20T14:07:39;100371.13;;;-2.55;71.84
76416;BME280;65248;55.686;37.678;2022-11-20T14:10:28;100374.63;;;-2.68;71.85
76416;BME280;65248;55.686;37.678;2022-11-20T14:12:54;100509.88;;;-2.03;72.11
76416;BME280;65248;55.686;37.678;2022-11-20T14:15:33;100360.38;;;-2.52;72.66
76416;BME280;65248;55.686;37.678;2022-11-20T14:18:10;100428.47;;;-2.27;71.32
76416;BME280;65248;55.686;37.678;2022-11-20T14:20:38;100312.38;;;-3.01;71.63
76416;BME280;65248;55.686;37.678;2022-11-20T14:23:04;100490.94;;;-2.20;72.01
76416;BME280;65248;55.686;37.678;2022-11-20T14:25:30;100472.72;;;-2.10;72.13
76416;BME280;65248;55.686;37.678;2022-11-20T14:28:01;100441.41;;;-2.48;72.33
76416;BME280;65248;55.686;37.678;2022-11-20T14:30:35;100391.50;;;-2.59;72.38
76416;BME280;65248;55.686;37.678;2022-11-20T14:33:03;100362.88;;;-2.86;73.26